Time;durP1;ratioP1;P1;durP2;ratioP2;P2;SDS_P1;SDS_P2;PMS_P1;PMS_P2;Temp;Humidity;BMP_temperature;BMP_pressure;BME280_temperature;BME280_humidity;BME280_pressure;Samples;Min_cycle;Max_cycle;Signal;HPM_P1;HPM_P2
2022/05/12 00:01:48;;;;;;;27.20;25.60;;;19.70;52.90;;;;;;5137082;27;20512;-75
2022/05/12 00:04:16;;;;;;;26.63;25.07;;;19.60;53.40;;;;;;5132021;27;20479;-76
2022/05/12 00:06:43;;;;;;;27.00;25.30;;;19.50;53.80;;;;;;5149477;27;20462;-75
2022/05/12 00:09:10;;;;;;;26.77;25.17;;;19.50;54.10;;;;;;5134707;27;20455;-75
2022/05/12 00:11:37;;;;;;;26.13;24.70;;;19.40;54.30;;;;;;5130328;27;20466;-75
2022/05/12 00:14:04;;;;;;;26.47;25.07;;;19.40;54.80;;;;;;5148317;27;20503;-75
2022/05/12 00:16:31;;;;;;;27.47;25.87;;;19.30;54.50;;;;;;5134152;27;20455;-75
2022/05/12 00:18:58;;;;;;;27.10;25.60;;;19.40;55.00;;;;;;5138444;27;20542;-75
2022/05/12 00:21:26;;;;;;;26.07;24.67;;;19.30;55.10;;;;;;5146082;27;21053;-75
2022/05/12 00:23:57;;;;;;;26.73;25.23;;;19.30;55.20;;;;;;5149546;27;20488;-75
2022/05/12 00:26:24;;;;;;;26.97;25.47;;;19.30;55.20;;;;;;5149015;27;20563;-75
2022/05/12 00:28:51;;;;;;;27.00;25.60;;;19.30;55.10;;;;;;5134112;27;20820;-75
2022/05/12 00:31:19;;;;;;;27.57;25.87;;;19.20;55.00;;;;;;5130619;27;20454;-75
2022/05/12 00:33:46;;;;;;;27.17;25.57;;;19.20;55.10;;;;;;5147084;27;20481;-75
2022/05/12 00:36:13;;;;;;;27.13;25.73;;;19.20;55.60;;;;;;5146983;27;20868;-75
2022/05/12 00:38:42;;;;;;;27.70;26.10;;;19.20;55.70;;;;;;5148925;27;20470;-75
2022/05/12 00:41:09;;;;;;;27.17;25.50;;;19.20;55.80;;;;;;5134111;27;20558;-75
2022/05/12 00:43:40;;;;;;;26.73;25.07;;;19.20;55.70;;;;;;5147493;27;20819;-75
2022/05/12 00:46:09;;;;;;;26.80;25.40;;;19.20;56.00;;;;;;5149807;27;20451;-75
2022/05/12 00:48:37;;;;;;;27.37;25.73;;;19.10;56.00;;;;;;5145760;27;20785;-75
2022/05/12 00:51:05;;;;;;;27.40;25.90;;;19.10;56.20;;;;;;5131521;27;20995;-75
2022/05/12 00:53:35;;;;;;;27.70;26.20;;;19.20;56.00;;;;;;5130226;27;20849;-75
2022/05/12 00:56:05;;;;;;;27.40;26.00;;;19.10;56.40;;;;;;5133175;27;20448;-75
2022/05/12 00:58:34;;;;;;;27.63;25.93;;;19.10;56.70;;;;;;5134370;27;20457;-75
2022/05/12 01:01:03;;;;;;;26.87;25.47;;;19.10;56.70;;;;;;5136771;27;20818;-75
2022/05/12 01:03:32;;;;;;;27.57;25.77;;;19.10;56.70;;;;;;5146049;27;20543;-75
2022/05/12 01:06:02;;;;;;;26.77;25.27;;;19.10;56.60;;;;;;5145338;27;20459;-75
2022/05/12 01:08:29;;;;;;;26.13;24.73;;;19.10;56.80;;;;;;5134805;27;20547;-75
2022/05/12 01:11:00;;;;;;;26.90;25.40;;;19.20;56.90;;;;;;5129375;27;20470;-75
2022/05/12 01:13:29;;;;;;;26.50;25.10;;;19.20;57.00;;;;;;5143334;27;20939;-75
2022/05/12 01:15:59;;;;;;;27.30;25.80;;;19.20;57.10;;;;;;5137270;27;20462;-75
2022/05/12 01:18:28;;;;;;;27.10;25.60;;;19.20;57.20;;;;;;5130024;27;20975;-75
2022/05/12 01:20:56;;;;;;;26.73;25.10;;;19.20;56.80;;;;;;5129826;27;20479;-75
2022/05/12 01:23:26;;;;;;;26.73;25.43;;;19.20;56.90;;;;;;5135039;27;20466;-75
2022/05/12 01:25:57;;;;;;;28.50;26.80;;;19.20;56.80;;;;;;5150336;27;20453;-76
2022/05/12 01:28:24;;;;;;;26.73;25.23;;;19.20;56.80;;;;;;5146130;27;20987;-75
2022/05/12 01:30:51;;;;;;;27.23;25.73;;;19.20;56.50;;;;;;5148023;27;20486;-75
2022/05/12 01:33:18;;;;;;;27.07;25.67;;;19.20;56.60;;;;;;5138132;27;20532;-76
2022/05/12 01:35:45;;;;;;;26.90;25.50;;;19.20;56.60;;;;;;5133810;27;20475;-76
2022/05/12 01:38:13;;;;;;;27.10;25.60;;;19.20;56.70;;;;;;5136940;27;20482;-76
2022/05/12 01:40:44;;;;;;;26.57;25.17;;;19.20;56.70;;;;;;5146679;27;21225;-75
2022/05/12 01:43:12;;;;;;;26.73;25.33;;;19.20;56.80;;;;;;5138690;27;20844;-75
2022/05/12 01:45:39;;;;;;;27.00;25.50;;;19.20;57.00;;;;;;5133047;27;20477;-75
2022/05/12 01:48:09;;;;;;;27.53;25.93;;;19.30;57.90;;;;;;5143324;27;20451;-75
2022/05/12 01:50:37;;;;;;;27.27;25.77;;;19.20;57.90;;;;;;5139547;27;20456;-75
2022/05/12 01:53:04;;;;;;;26.97;25.37;;;19.10;58.70;;;;;;5147070;27;20461;-75
2022/05/12 01:55:31;;;;;;;26.90;25.40;;;19.10;59.00;;;;;;5132672;27;20471;-75
2022/05/12 01:58:00;;;;;;;27.50;26.00;;;19.00;59.10;;;;;;5134786;27;20852;-75
2022/05/12 02:00:29;;;;;;;27.63;26.03;;;18.80;59.30;;;;;;5132712;27;20554;-75
2022/05/12 02:03:00;;;;;;;28.10;26.07;;;18.70;59.80;;;;;;5144659;27;20461;-75
2022/05/12 02:05:28;;;;;;;28.43;26.73;;;18.60;59.80;;;;;;5149433;27;20487;-75
2022/05/12 02:07:55;;;;;;;28.10;26.20;;;18.60;59.70;;;;;;5149613;27;20449;-75
2022/05/12 02:10:24;;;;;;;28.03;26.43;;;18.60;59.70;;;;;;5133128;27;20452;-75
2022/05/12 02:12:51;;;;;;;27.40;25.87;;;18.60;59.90;;;;;;5140503;27;20811;-75
2022/05/12 02:15:20;;;;;;;27.93;26.43;;;18.70;59.90;;;;;;5147514;27;20554;-75
2022/05/12 02:17:49;;;;;;;26.57;25.17;;;18.70;60.20;;;;;;5150216;27;20816;-75
2022/05/12 02:20:18;;;;;;;27.70;26.20;;;18.70;60.40;;;;;;5144015;27;20464;-75
2022/05/12 02:22:45;;;;;;;28.13;26.53;;;18.70;60.70;;;;;;5133580;27;20462;-75
2022/05/12 02:25:13;;;;;;;27.57;26.07;;;18.60;61.00;;;;;;5131334;27;20829;-75
2022/05/12 02:27:45;;;;;;;28.50;27.00;;;18.60;61.20;;;;;;5135527;27;20468;-75
2022/05/12 02:30:14;;;;;;;27.90;26.40;;;18.60;61.60;;;;;;5131155;27;20459;-75
2022/05/12 02:32:43;;;;;;;27.43;26.03;;;18.60;61.60;;;;;;5144821;27;20463;-75
2022/05/12 02:35:10;;;;;;;29.07;27.47;;;18.50;62.00;;;;;;5144650;27;20480;-75
2022/05/12 02:37:37;;;;;;;28.03;26.33;;;18.50;62.20;;;;;;5137801;27;20538;-75
2022/05/12 02:40:05;;;;;;;27.77;26.00;;;18.50;62.10;;;;;;5130715;27;20475;-75
2022/05/12 02:42:31;;;;;;;27.43;25.93;;;18.50;62.20;;;;;;5133005;27;20459;-75
2022/05/12 02:44:58;;;;;;;27.50;26.00;;;18.50;62.40;;;;;;5129359;28;20566;-75
2022/05/12 02:47:25;;;;;;;28.73;27.13;;;18.40;62.60;;;;;;5135841;27;20462;-75
2022/05/12 02:49:53;;;;;;;29.13;27.43;;;18.30;63.20;;;;;;5149794;27;20451;-75
2022/05/12 02:52:20;;;;;;;27.50;26.00;;;18.20;63.60;;;;;;5131699;27;20535;-75
2022/05/12 02:54:47;;;;;;;28.07;26.57;;;18.20;63.70;;;;;;5148043;27;20474;-75
2022/05/12 02:57:14;;;;;;;28.10;26.40;;;18.20;63.90;;;;;;5143187;27;20451;-75
2022/05/12 02:59:41;;;;;;;28.80;27.00;;;18.10;64.00;;;;;;5148505;27;20461;-75
2022/05/12 03:02:09;;;;;;;28.30;26.60;;;18.10;64.30;;;;;;5136008;27;20461;-75
2022/05/12 03:04:36;;;;;;;29.07;27.23;;;18.10;64.40;;;;;;5142400;27;20590;-75
2022/05/12 03:07:04;;;;;;;29.30;27.30;;;18.10;64.40;;;;;;5143955;27;21233;-75
2022/05/12 03:09:32;;;;;;;28.03;26.23;;;18.00;64.70;;;;;;5146639;27;20458;-75
2022/05/12 03:11:58;;;;;;;29.03;27.43;;;17.90;65.00;;;;;;5148343;27;20451;-75
2022/05/12 03:14:25;;;;;;;29.50;27.90;;;17.90;65.20;;;;;;5138777;27;20467;-75
2022/05/12 03:16:53;;;;;;;28.97;27.10;;;17.90;65.00;;;;;;5141100;27;20888;-75
2022/05/12 03:19:21;;;;;;;28.10;26.40;;;17.90;65.30;;;;;;5139285;27;20859;-76
2022/05/12 03:21:47;;;;;;;28.23;26.73;;;17.90;65.60;;;;;;5151195;27;20491;-73
2022/05/12 03:24:17;;;;;;;29.05;27.45;;;17.80;65.90;;;;;;5099430;27;1117240;-75
2022/05/12 03:26:43;;;;;;;28.60;26.90;;;17.70;66.00;;;;;;5132169;27;20608;-75
2022/05/12 03:29:10;;;;;;;31.57;29.87;;;17.70;66.30;;;;;;5143000;27;20487;-75
2022/05/12 03:31:37;;;;;;;29.17;27.30;;;17.70;66.50;;;;;;5140662;27;20538;-76
2022/05/12 03:34:06;;;;;;;29.80;28.10;;;17.70;66.60;;;;;;5135528;27;20809;-75
2022/05/12 03:36:35;;;;;;;30.17;28.37;;;17.70;66.70;;;;;;5149045;27;20804;-75
2022/05/12 03:39:03;;;;;;;29.60;28.00;;;17.70;66.70;;;;;;5125004;27;20461;-75
2022/05/12 03:41:31;;;;;;;31.57;29.67;;;17.70;66.80;;;;;;5137489;27;20487;-75
2022/05/12 03:46:42;;;;;;;29.50;27.80;;;17.70;67.30;;;;;;5140242;27;20458;-76
2022/05/12 03:49:09;;;;;;;30.07;28.20;;;17.70;67.60;;;;;;5140148;27;20470;-75
2022/05/12 03:51:36;;;;;;;28.70;26.73;;;17.70;67.80;;;;;;5143476;27;20534;-75
2022/05/12 03:54:03;;;;;;;28.57;26.97;;;17.80;67.60;;;;;;5137531;27;20480;-75
2022/05/12 03:56:32;;;;;;;29.93;28.13;;;17.70;67.80;;;;;;5131441;27;20528;-75
2022/05/12 03:58:59;;;;;;;30.23;28.50;;;17.70;67.80;;;;;;5134325;27;20555;-76
2022/05/12 04:01:26;;;;;;;32.00;30.10;;;17.70;68.10;;;;;;5130828;27;20571;-75
2022/05/12 04:03:56;;;;;;;30.00;28.30;;;17.70;68.20;;;;;;5132689;27;20472;-75
2022/05/12 04:06:23;;;;;;;31.03;29.13;;;17.70;68.30;;;;;;5139767;27;21157;-75
2022/05/12 04:08:50;;;;;;;29.67;27.60;;;17.70;68.40;;;;;;5135184;27;21059;-75
2022/05/12 04:11:17;;;;;;;31.90;29.90;;;17.80;68.40;;;;;;5133138;27;20461;-75
2022/05/12 04:13:45;;;;;;;30.70;28.63;;;17.80;68.60;;;;;;5139000;27;20458;-75
2022/05/12 04:16:12;;;;;;;30.00;28.10;;;17.90;68.40;;;;;;5145628;27;20455;-78
2022/05/12 04:18:39;;;;;;;30.53;28.67;;;17.90;68.30;;;;;;5138161;27;20462;-75
2022/05/12 04:21:06;;;;;;;29.20;27.50;;;18.00;68.50;;;;;;5130302;27;20573;-75
2022/05/12 04:23:33;;;;;;;30.60;28.80;;;18.00;68.50;;;;;;5143151;27;20971;-75
2022/05/12 04:26:00;;;;;;;29.43;27.53;;;18.00;68.50;;;;;;5139226;27;20980;-76
2022/05/12 04:28:27;;;;;;;30.13;28.43;;;18.00;68.60;;;;;;5145307;27;20454;-74
2022/05/12 04:30:55;;;;;;;32.30;30.20;;;18.10;68.50;;;;;;5147453;27;20823;-74
2022/05/12 04:36:06;;;;;;;30.23;28.43;;;18.20;68.30;;;;;;5146986;27;20453;-75
2022/05/12 04:38:34;;;;;;;31.10;29.27;;;18.30;68.30;;;;;;5135037;27;20541;-74
2022/05/12 04:41:01;;;;;;;30.27;28.37;;;18.30;68.20;;;;;;5145595;27;20992;-75
2022/05/12 04:43:28;;;;;;;30.00;28.20;;;18.30;68.60;;;;;;5137083;27;20466;-73
2022/05/12 04:45:56;;;;;;;29.60;27.80;;;18.40;68.70;;;;;;5147030;27;20462;-76
2022/05/12 04:48:23;;;;;;;29.87;27.73;;;18.40;68.90;;;;;;5143748;27;20530;-75
2022/05/12 04:50:50;;;;;;;30.77;28.97;;;18.50;68.70;;;;;;5140867;27;20546;-76
2022/05/12 04:53:17;;;;;;;31.07;29.27;;;18.50;68.60;;;;;;5142538;27;20452;-76
2022/05/12 04:55:45;;;;;;;30.20;28.27;;;18.60;68.60;;;;;;5129914;27;20975;-74
2022/05/12 04:58:12;;;;;;;30.30;28.33;;;18.60;68.70;;;;;;5138618;27;20466;-73
2022/05/12 05:00:41;;;;;;;32.20;30.40;;;18.50;69.20;;;;;;5136157;27;20501;-76
2022/05/12 05:03:12;;;;;;;30.93;29.03;;;18.60;69.20;;;;;;5146918;27;20951;-76
2022/05/12 05:05:39;;;;;;;30.10;28.40;;;18.70;69.30;;;;;;5134083;27;20499;-74
2022/05/12 05:08:07;;;;;;;29.33;27.67;;;18.80;69.40;;;;;;5144715;27;20948;-75
2022/05/12 05:10:34;;;;;;;29.43;27.57;;;19.00;69.30;;;;;;5133424;27;20486;-76
2022/05/12 05:13:02;;;;;;;29.23;27.53;;;19.10;69.20;;;;;;5148634;27;21004;-76
2022/05/12 05:15:29;;;;;;;28.80;27.10;;;19.30;68.50;;;;;;5129772;27;21026;-76
2022/05/12 05:17:56;;;;;;;28.10;26.50;;;19.40;68.20;;;;;;5137676;27;20451;-79
2022/05/12 05:20:27;;;;;;;32.97;30.87;;;19.50;67.70;;;;;;5142216;27;20542;-79
2022/05/12 05:22:54;;;;;;;29.27;27.60;;;19.60;67.60;;;;;;5136512;27;20967;-77
2022/05/12 05:25:21;;;;;;;28.93;26.97;;;19.70;67.50;;;;;;5131833;27;20471;-78
2022/05/12 05:27:49;;;;;;;29.63;27.87;;;19.90;67.40;;;;;;5145106;27;20453;-78
2022/05/12 05:30:19;;;;;;;31.20;29.20;;;20.10;66.60;;;;;;5145230;27;20461;-78
2022/05/12 05:32:47;;;;;;;29.07;27.47;;;20.10;66.30;;;;;;5148572;27;20490;-78
2022/05/12 05:35:14;;;;;;;29.30;27.57;;;20.30;66.00;;;;;;5148079;27;20553;-78
2022/05/12 05:37:43;;;;;;;30.27;28.37;;;20.40;66.00;;;;;;5150671;27;20490;-78
2022/05/12 05:40:13;;;;;;;28.10;26.50;;;20.50;65.90;;;;;;5138357;27;20444;-78
2022/05/12 05:42:41;;;;;;;29.17;27.40;;;20.50;65.00;;;;;;5137800;27;20494;-77
2022/05/12 05:45:11;;;;;;;28.30;26.60;;;20.40;64.80;;;;;;5138265;27;20511;-77
2022/05/12 05:47:38;;;;;;;30.50;28.70;;;20.50;64.90;;;;;;5143931;27;20462;-77
2022/05/12 05:50:08;;;;;;;28.83;27.13;;;20.50;64.10;;;;;;5133588;27;20455;-77
2022/05/12 05:55:21;;;;;;;28.37;26.40;;;20.60;63.50;;;;;;5149530;27;20895;-79
2022/05/12 05:57:49;;;;;;;28.40;26.80;;;20.90;62.70;;;;;;5129045;28;20456;-78
2022/05/12 06:00:17;;;;;;;28.73;26.90;;;21.00;62.70;;;;;;5133266;28;21132;-78
2022/05/12 06:02:44;;;;;;;29.50;27.80;;;21.00;62.50;;;;;;5149330;27;20475;-78
2022/05/12 06:05:11;;;;;;;28.33;26.63;;;21.00;62.90;;;;;;5148615;27;20533;-77
2022/05/12 06:07:39;;;;;;;29.53;27.80;;;20.80;62.80;;;;;;5151820;27;20454;-77
2022/05/12 06:10:07;;;;;;;29.53;27.73;;;20.60;63.80;;;;;;5151099;27;20456;-78
2022/05/12 06:12:37;;;;;;;29.30;27.70;;;20.70;63.70;;;;;;5142454;27;20455;-78
2022/05/12 06:15:06;;;;;;;27.57;25.83;;;20.90;63.40;;;;;;5130865;27;20558;-77
2022/05/12 06:17:35;;;;;;;27.50;26.00;;;21.00;63.10;;;;;;5147519;27;20491;-78
2022/05/12 06:20:02;;;;;;;27.70;26.10;;;21.10;63.00;;;;;;5155689;27;20510;-80
2022/05/12 06:22:29;;;;;;;28.40;26.60;;;21.40;61.90;;;;;;5151731;27;20475;-76
2022/05/12 06:24:56;;;;;;;29.20;27.50;;;21.60;61.80;;;;;;5143031;27;20607;-77
2022/05/12 06:27:22;;;;;;;28.07;26.33;;;21.70;61.40;;;;;;5142159;27;20460;-76
2022/05/12 06:29:51;;;;;;;30.07;28.07;;;22.00;61.20;;;;;;5144985;27;20459;-76
2022/05/12 06:32:21;;;;;;;28.50;26.93;;;22.10;60.30;;;;;;5149102;27;20537;-76
2022/05/12 06:34:48;;;;;;;28.93;27.23;;;21.70;61.10;;;;;;5152451;27;20577;-76
2022/05/12 06:37:16;;;;;;;30.27;28.53;;;21.80;61.40;;;;;;5142277;27;20455;-76
2022/05/12 06:39:44;;;;;;;31.40;29.70;;;22.00;60.50;;;;;;5138783;27;20956;-76
2022/05/12 06:42:12;;;;;;;27.93;26.27;;;22.10;60.50;;;;;;5147487;27;20483;-76
2022/05/12 06:44:42;;;;;;;29.90;28.20;;;22.10;60.10;;;;;;5145442;27;20590;-76
2022/05/12 06:47:13;;;;;;;30.07;28.37;;;22.40;59.60;;;;;;5141203;27;20937;-77
2022/05/12 06:49:40;;;;;;;31.70;29.80;;;22.60;59.20;;;;;;5137452;27;20451;-77
2022/05/12 06:52:08;;;;;;;29.63;28.00;;;22.70;59.10;;;;;;5133277;27;21132;-76
2022/05/12 06:54:39;;;;;;;28.60;27.07;;;22.80;58.90;;;;;;5132253;27;20821;-77
2022/05/12 06:57:09;;;;;;;30.33;28.47;;;22.80;58.70;;;;;;5140071;27;20452;-77
2022/05/12 06:59:43;;;;;;;31.30;29.60;;;22.70;58.80;;;;;;5150116;27;20463;-77
2022/05/12 07:02:12;;;;;;;29.13;27.50;;;22.30;59.40;;;;;;5130196;27;20554;-77
2022/05/12 07:04:47;;;;;;;31.10;29.30;;;21.80;60.70;;;;;;5132461;27;20479;-77
2022/05/12 07:07:16;;;;;;;32.30;30.40;;;21.60;61.60;;;;;;5141036;27;20497;-77
2022/05/12 07:09:43;;;;;;;29.70;28.10;;;21.70;61.60;;;;;;5143508;27;20448;-77
2022/05/12 07:12:13;;;;;;;28.97;27.30;;;21.80;61.40;;;;;;5144888;27;20456;-77
2022/05/12 07:14:40;;;;;;;27.87;26.37;;;21.70;61.30;;;;;;5147295;27;20485;-77
2022/05/12 07:17:07;;;;;;;28.70;27.20;;;21.50;62.10;;;;;;5131294;27;20820;-77
2022/05/12 07:19:35;;;;;;;34.23;32.50;;;21.50;62.40;;;;;;5132335;27;20899;-77
2022/05/12 07:27:31;;;;;;;31.77;30.07;;;21.70;62.50;;;;;;5143397;27;20454;-76
2022/05/12 07:29:58;;;;;;;29.70;28.10;;;21.70;62.30;;;;;;5137867;27;20927;-77
2022/05/12 07:32:25;;;;;;;30.90;29.27;;;21.80;62.20;;;;;;5132537;27;20458;-78
2022/05/12 07:34:53;;;;;;;30.27;28.57;;;21.80;62.00;;;;;;5148376;27;20475;-79
2022/05/12 07:37:20;;;;;;;32.03;30.33;;;21.70;62.20;;;;;;5148075;27;20488;-77
2022/05/12 07:39:47;;;;;;;32.70;30.80;;;21.50;62.50;;;;;;5148899;27;20459;-76
2022/05/12 07:42:14;;;;;;;29.03;27.33;;;21.40;62.70;;;;;;5151172;27;20513;-77
2022/05/12 07:44:41;;;;;;;29.67;27.80;;;21.50;62.90;;;;;;5150756;27;20478;-78
2022/05/12 07:47:13;;;;;;;30.53;28.83;;;21.50;63.20;;;;;;5147131;27;20481;-79
2022/05/12 07:49:41;;;;;;;30.63;28.80;;;21.40;63.20;;;;;;5151526;27;20570;-77
2022/05/12 07:52:13;;;;;;;29.23;27.47;;;21.40;63.50;;;;;;5146755;27;20459;-76
2022/05/12 07:54:41;;;;;;;28.97;27.07;;;21.60;63.60;;;;;;5143044;27;20472;-77
2022/05/12 07:57:08;;;;;;;30.20;28.10;;;22.00;62.70;;;;;;5145154;27;20534;-77
2022/05/12 07:59:35;;;;;;;30.30;28.40;;;22.30;62.10;;;;;;5148752;27;20529;-77
2022/05/12 08:02:03;;;;;;;31.10;28.77;;;22.70;61.30;;;;;;5148695;27;20478;-78
2022/05/12 08:04:30;;;;;;;32.23;30.30;;;22.90;59.90;;;;;;5138501;27;20475;-78
2022/05/12 08:06:59;;;;;;;31.90;30.00;;;22.90;59.90;;;;;;5148176;27;20538;-78
2022/05/12 08:09:27;;;;;;;30.23;28.50;;;22.80;60.10;;;;;;5150039;27;21011;-78
2022/05/12 08:11:54;;;;;;;30.40;28.60;;;22.80;60.00;;;;;;5150883;27;20506;-78
2022/05/12 08:14:21;;;;;;;30.30;28.30;;;22.50;60.90;;;;;;5149863;27;20577;-77
2022/05/12 08:16:48;;;;;;;29.47;27.83;;;22.50;61.10;;;;;;5147638;27;20465;-78
2022/05/12 08:19:16;;;;;;;32.50;30.50;;;22.60;60.50;;;;;;5150907;27;20450;-78
2022/05/12 08:21:43;;;;;;;56.60;30.13;;;22.80;60.40;;;;;;5134236;27;20822;-77
2022/05/12 08:24:12;;;;;;;30.77;28.97;;;23.20;59.50;;;;;;5147926;27;21068;-78
2022/05/12 08:26:40;;;;;;;32.37;30.67;;;23.20;58.90;;;;;;5149578;27;21062;-78
2022/05/12 08:29:08;;;;;;;33.57;30.47;;;23.30;58.50;;;;;;5132389;27;20444;-78
2022/05/12 08:31:34;;;;;;;33.47;30.30;;;23.60;58.70;;;;;;5148826;27;20439;-78
2022/05/12 08:34:04;;;;;;;33.13;30.10;;;23.90;57.70;;;;;;5138287;27;20467;-78
2022/05/12 08:36:34;;;;;;;30.43;28.57;;;24.20;57.30;;;;;;5145246;27;20575;-78
2022/05/12 08:39:02;;;;;;;31.10;29.10;;;24.30;56.80;;;;;;5131962;27;20509;-78
2022/05/12 08:41:55;;;;;;;28.53;27.03;;;24.00;56.80;;;;;;5129248;27;20460;-78
2022/05/12 08:44:26;;;;;;;29.63;27.63;;;23.60;57.80;;;;;;5142121;27;20482;-78
2022/05/12 08:46:56;;;;;;;30.90;28.40;;;23.40;58.90;;;;;;5131501;27;20554;-80
2022/05/12 08:49:29;;;;;;;31.47;29.60;;;23.60;58.60;;;;;;5130108;27;20451;-78
2022/05/12 08:52:14;;;;;;;29.20;27.20;;;23.80;57.80;;;;;;5146402;27;20483;-77
2022/05/12 08:54:46;;;;;;;29.50;27.70;;;23.60;58.20;;;;;;5129650;27;21249;-78
2022/05/12 08:57:29;;;;;;;29.80;28.10;;;23.60;58.40;;;;;;5141520;27;20453;-78
2022/05/12 08:59:57;;;;;;;31.40;29.10;;;23.60;58.20;;;;;;5128541;27;21017;-79
2022/05/12 09:02:32;;;;;;;30.57;28.80;;;23.40;58.50;;;;;;5141673;27;20570;-77
2022/05/12 09:05:07;;;;;;;32.57;30.67;;;23.20;59.00;;;;;;5146519;27;20553;-78
2022/05/12 09:07:41;;;;;;;30.50;28.60;;;23.30;59.30;;;;;;5148651;27;20451;-78
2022/05/12 09:10:20;;;;;;;30.70;28.90;;;23.50;59.10;;;;;;5149301;27;20453;-78
2022/05/12 09:12:57;;;;;;;30.10;28.40;;;23.70;58.20;;;;;;5129491;27;20520;-78
2022/05/12 09:15:27;;;;;;;29.50;27.90;;;23.70;58.30;;;;;;5144787;27;20857;-79
2022/05/12 09:17:57;;;;;;;31.27;29.30;;;23.60;58.60;;;;;;5147753;27;20455;-78
2022/05/12 09:20:25;;;;;;;30.00;28.20;;;23.50;58.60;;;;;;5146804;27;20538;-78
2022/05/12 09:22:55;;;;;;;31.17;29.40;;;23.50;58.90;;;;;;5140642;27;20599;-78
2022/05/12 09:25:32;;;;;;;30.93;28.87;;;23.70;58.50;;;;;;5135134;27;20936;-77
2022/05/12 09:28:17;;;;;;;31.47;29.57;;;24.00;57.90;;;;;;5149945;27;20457;-77
2022/05/12 09:30:45;;;;;;;32.83;30.97;;;24.00;57.30;;;;;;5156883;27;20447;-78
2022/05/12 09:33:12;;;;;;;32.70;30.60;;;23.90;57.10;;;;;;5151523;27;20491;-79
2022/05/12 09:35:39;;;;;;;32.40;30.27;;;23.90;57.70;;;;;;5143039;27;20506;-78
2022/05/12 09:38:22;;;;;;;32.07;30.27;;;24.00;57.50;;;;;;5146207;27;21065;-77
2022/05/12 09:40:51;;;;;;;34.27;32.00;;;24.20;56.90;;;;;;5138321;27;20480;-78
2022/05/12 09:43:28;;;;;;;32.37;30.57;;;24.40;56.70;;;;;;5138610;27;20856;-77
2022/05/12 09:46:21;;;;;;;35.10;33.10;;;24.60;56.00;;;;;;5145733;27;20466;-77
2022/05/12 09:48:55;;;;;;;31.50;29.80;;;24.80;55.30;;;;;;5141670;27;20459;-78
2022/05/12 09:51:29;;;;;;;35.60;32.93;;;24.90;55.10;;;;;;5147014;27;20462;-77
2022/05/12 09:54:16;;;;;;;32.63;30.53;;;25.20;54.60;;;;;;5148245;27;20798;-77
2022/05/12 09:56:46;;;;;;;33.60;30.90;;;25.50;54.50;;;;;;5148741;27;20471;-77
2022/05/12 09:59:22;;;;;;;38.40;36.23;;;25.70;53.80;;;;;;5138167;27;20814;-77
2022/05/12 10:01:53;;;;;;;34.30;32.30;;;25.90;53.10;;;;;;5150396;27;20474;-77
2022/05/12 10:10:18;;;;;;;52.23;40.57;;;26.00;52.80;;;;;;5139902;27;20490;-78
2022/05/12 10:12:52;;;;;;;34.20;30.97;;;26.10;52.50;;;;;;5150273;27;20452;-77
2022/05/12 10:15:27;;;;;;;34.30;32.10;;;26.20;52.50;;;;;;5146729;27;20565;-77
2022/05/12 10:17:56;;;;;;;32.07;30.17;;;26.20;52.50;;;;;;5147756;27;20452;-78
2022/05/12 10:20:26;;;;;;;31.40;29.50;;;25.30;54.10;;;;;;5148498;27;20449;-77
2022/05/12 10:22:59;;;;;;;33.30;31.30;;;24.80;55.40;;;;;;5144489;27;20562;-77
2022/05/12 10:25:47;;;;;;;31.70;29.90;;;24.60;55.70;;;;;;5135808;27;20563;-77
2022/05/12 10:28:21;;;;;;;33.03;30.93;;;24.30;56.30;;;;;;5138905;27;20601;-77
2022/05/12 10:30:56;;;;;;;34.13;31.87;;;24.30;56.70;;;;;;5144565;27;20460;-77
2022/05/12 10:33:38;;;;;;;34.53;32.23;;;24.40;56.00;;;;;;5136180;27;20523;-76
2022/05/12 10:36:22;;;;;;;33.83;31.83;;;24.60;56.10;;;;;;5143549;27;20519;-77
2022/05/12 10:39:00;;;;;;;31.70;29.90;;;25.10;55.10;;;;;;5140337;27;20484;-77
2022/05/12 10:41:33;;;;;;;32.17;30.17;;;25.50;54.10;;;;;;5139540;27;20458;-77
2022/05/12 10:44:17;;;;;;;33.93;31.97;;;25.90;53.90;;;;;;5147469;27;20495;-77
2022/05/12 10:46:54;;;;;;;34.10;32.20;;;26.30;52.20;;;;;;5147146;27;20481;-77
2022/05/12 10:49:23;;;;;;;34.93;32.87;;;26.40;51.80;;;;;;5131891;27;20958;-77
2022/05/12 10:52:03;;;;;;;32.03;30.03;;;25.90;52.20;;;;;;5133800;27;20485;-77
2022/05/12 10:54:51;;;;;;;35.33;33.30;;;25.20;53.70;;;;;;5139215;27;20573;-77
2022/05/12 10:57:32;;;;;;;31.73;29.93;;;24.90;55.00;;;;;;5133668;27;20520;-77
2022/05/12 11:00:23;;;;;;;33.47;31.47;;;24.70;55.40;;;;;;5131857;27;20975;-77
2022/05/12 11:02:56;;;;;;;32.30;30.10;;;24.80;55.20;;;;;;5111774;27;20831;-77
2022/05/12 11:05:30;;;;;;;34.57;32.57;;;25.00;54.60;;;;;;5148112;27;20473;-77
2022/05/12 11:08:04;;;;;;;32.10;30.30;;;25.00;54.70;;;;;;5148483;27;20458;-77
2022/05/12 11:10:37;;;;;;;31.47;29.57;;;25.20;54.20;;;;;;5143773;27;20442;-77
2022/05/12 11:13:10;;;;;;;33.50;31.50;;;25.40;53.70;;;;;;5146277;27;20820;-77
2022/05/12 11:15:47;;;;;;;32.43;30.33;;;25.70;53.80;;;;;;5145613;27;20476;-77
2022/05/12 11:18:20;;;;;;;35.10;32.90;;;26.20;52.30;;;;;;5130808;27;20531;-77
2022/05/12 11:20:58;;;;;;;34.00;32.00;;;26.60;51.70;;;;;;5133916;27;20547;-77
2022/05/12 11:23:34;;;;;;;36.17;33.80;;;26.90;50.40;;;;;;5150338;27;20486;-77
2022/05/12 11:26:10;;;;;;;33.70;31.60;;;27.20;50.20;;;;;;5145562;27;20448;-77
2022/05/12 11:31:33;;;;;;;36.63;34.23;;;27.00;49.80;;;;;;5135478;27;20497;-77
2022/05/12 11:34:06;;;;;;;33.33;31.30;;;27.00;50.10;;;;;;5130528;27;20470;-77
2022/05/12 11:36:41;;;;;;;34.73;32.70;;;26.50;50.60;;;;;;5144359;27;20459;-77
2022/05/12 11:39:31;;;;;;;32.60;30.70;;;26.60;50.90;;;;;;5151508;27;20853;-77
2022/05/12 11:42:17;;;;;;;35.10;33.10;;;26.70;50.90;;;;;;5150024;27;20937;-77
2022/05/12 11:44:55;;;;;;;34.13;31.70;;;26.50;51.50;;;;;;5142044;27;20467;-77
2022/05/12 11:47:44;;;;;;;37.30;35.10;;;26.50;51.30;;;;;;5152515;27;20448;-78
2022/05/12 11:50:59;;;;;;;34.17;31.77;;;26.50;51.20;;;;;;5146499;27;20536;-80
2022/05/12 11:53:34;;;;;;;36.07;33.70;;;27.00;50.70;;;;;;5028565;28;20538;-78
2022/05/12 11:56:05;;;;;;;34.60;32.40;;;27.10;49.70;;;;;;5044638;28;20466;-77
2022/05/12 11:58:41;;;;;;;33.23;31.33;;;27.20;49.20;;;;;;5107579;27;20481;-78
2022/05/12 12:01:11;;;;;;;34.70;32.60;;;27.30;49.20;;;;;;5147823;27;20947;-77
2022/05/12 12:03:56;;;;;;;36.77;34.40;;;27.00;49.80;;;;;;5135786;27;20471;-79
2022/05/12 12:06:53;;;;;;;34.20;32.10;;;26.80;50.20;;;;;;5148296;27;20453;-77
2022/05/12 12:09:54;;;;;;;35.83;33.40;;;26.70;50.70;;;;;;5142109;27;20468;-78
2022/05/12 12:12:59;;;;;;;35.07;32.23;;;26.70;50.40;;;;;;5133405;27;20462;-76
2022/05/12 12:16:04;;;;;;;34.37;32.27;;;26.60;50.60;;;;;;5110332;27;20974;-81
2022/05/12 12:18:50;;;;;;;33.93;31.83;;;26.40;50.70;;;;;;5144591;27;20532;-83
2022/05/12 12:21:43;;;;;;;33.73;31.70;;;26.20;51.60;;;;;;5139822;27;20451;-77
2022/05/12 12:24:39;;;;;;;34.33;31.80;;;26.20;51.90;;;;;;5148436;27;20486;-77
2022/05/12 12:27:39;;;;;;;34.53;32.30;;;26.50;51.50;;;;;;5133180;27;20481;-77
2022/05/12 12:30:38;;;;;;;35.27;33.03;;;26.70;50.60;;;;;;5142510;27;20541;-80
2022/05/12 12:33:19;;;;;;;37.20;35.23;;;26.80;50.30;;;;;;5095706;27;20454;-81
2022/05/12 12:36:00;;;;;;;36.20;34.00;;;26.60;50.90;;;;;;5142967;27;20478;-82
2022/05/12 12:39:08;;;;;;;34.47;32.27;;;26.70;50.80;;;;;;5134888;27;20464;-84
2022/05/12 12:41:38;;;;;;;38.03;35.70;;;26.50;50.90;;;;;;5050778;28;20551;-85
2022/05/12 12:44:12;;;;;;;35.33;33.13;;;26.10;51.70;;;;;;5121751;27;20814;-75
2022/05/12 12:46:52;;;;;;;33.93;31.83;;;25.80;52.60;;;;;;5137824;27;20454;-74
2022/05/12 12:49:24;;;;;;;33.53;31.40;;;25.70;52.70;;;;;;5138985;27;20996;-75
2022/05/12 12:51:57;;;;;;;33.03;30.93;;;25.70;52.70;;;;;;5136385;27;20461;-75
2022/05/12 12:57:13;;;;;;;33.70;31.50;;;25.60;53.00;;;;;;5146123;27;20446;-75
2022/05/12 12:59:49;;;;;;;34.40;32.30;;;25.90;52.80;;;;;;5138149;27;20455;-75
2022/05/12 13:02:29;;;;;;;32.57;30.27;;;26.10;52.50;;;;;;5139066;27;20455;-75
2022/05/12 13:04:58;;;;;;;33.77;31.57;;;25.90;53.20;;;;;;5133932;27;20488;-75
2022/05/12 13:07:28;;;;;;;33.17;31.17;;;26.10;53.00;;;;;;5133750;27;20479;-75
2022/05/12 13:09:56;;;;;;;33.43;31.40;;;26.30;52.70;;;;;;5145768;27;20932;-75
2022/05/12 13:12:26;;;;;;;32.27;30.30;;;26.30;53.00;;;;;;5148436;27;20456;-74